Time;durP1;ratioP1;P1;durP2;ratioP2;P2;SDS_P1;SDS_P2;PMS_P1;PMS_P2;Temp;Humidity;BMP_temperature;BMP_pressure;BME280_temperature;BME280_humidity;BME280_pressure;Samples;Min_cycle;Max_cycle;Signal;HPM_P1;HPM_P2
2021/01/30 00:00:33;;;;;;;2.27;1.20;;;;;;;9.49;66.64;96216.75;8342812;28;20205;-80
2021/01/30 00:04:36;;;;;;;2.27;1.23;;;;;;;9.37;67.56;96235.66;8327846;28;20233;-81
2021/01/30 00:08:37;;;;;;;2.87;1.20;;;;;;;9.25;67.61;96228.72;8325818;28;20237;-79
2021/01/30 00:12:41;;;;;;;2.30;1.00;;;;;;;9.20;67.48;96227.28;8323650;28;20213;-80
2021/01/30 00:16:43;;;;;;;1.97;1.00;;;;;;;8.98;67.79;96242.53;8324036;28;20213;-79
2021/01/30 00:20:44;;;;;;;3.33;1.40;;;;;;;9.04;67.95;96228.38;8324196;28;20288;-78
2021/01/30 00:24:49;;;;;;;3.20;1.33;;;;;;;9.08;67.63;96233.25;8322576;28;20228;-79
2021/01/30 00:28:52;;;;;;;2.13;1.10;;;;;;;8.91;67.66;96231.78;8322937;28;20201;-80
2021/01/30 00:33:02;;;;;;;2.50;1.00;;;;;;;8.91;67.67;96228.34;8322907;28;20216;-79
2021/01/30 00:37:08;;;;;;;1.63;1.00;;;;;;;8.83;66.98;96217.72;8320932;28;20209;-79
2021/01/30 00:41:10;;;;;;;3.13;1.03;;;;;;;8.82;67.15;96221.25;8320923;28;20583;-79
2021/01/30 00:45:15;;;;;;;4.00;1.23;;;;;;;8.72;66.86;96232.16;8322329;28;20200;-79
2021/01/30 00:49:17;;;;;;;1.90;1.00;;;;;;;8.68;66.49;96225.53;8321845;28;20200;-79
2021/01/30 00:53:19;;;;;;;2.87;1.30;;;;;;;8.83;65.62;96236.59;8305505;28;20210;-79
2021/01/30 00:57:20;;;;;;;2.60;1.20;;;;;;;8.66;65.89;96232.53;8288413;28;20202;-79
2021/01/30 01:01:24;;;;;;;2.93;1.23;;;;;;;8.98;65.24;96234.78;8310040;28;20578;-79
2021/01/30 01:05:26;;;;;;;2.70;1.30;;;;;;;8.88;64.90;96249.22;8319645;28;20251;-79
2021/01/30 01:09:28;;;;;;;3.87;1.40;;;;;;;8.79;65.39;96243.72;8320417;28;20598;-79
2021/01/30 01:13:30;;;;;;;2.60;1.20;;;;;;;8.94;64.36;96251.41;8322535;28;20215;-79
2021/01/30 01:17:33;;;;;;;2.80;1.30;;;;;;;8.89;64.54;96243.13;8324600;28;20212;-80
2021/01/30 01:21:38;;;;;;;4.03;1.37;;;;;;;8.81;64.53;96246.19;8324505;28;20229;-79
2021/01/30 01:25:40;;;;;;;3.23;1.23;;;;;;;8.69;63.61;96240.09;8334427;28;20196;-79
2021/01/30 01:29:41;;;;;;;2.50;1.10;;;;;;;8.82;63.25;96229.81;8356677;28;20204;-79
2021/01/30 01:33:44;;;;;;;4.00;1.20;;;;;;;8.80;63.05;96231.66;8356727;28;20574;-79
2021/01/30 01:37:46;;;;;;;2.53;1.10;;;;;;;8.72;63.28;96232.16;8359322;28;20197;-78
2021/01/30 01:41:59;;;;;;;2.60;1.20;;;;;;;8.60;63.65;96226.03;8335073;28;20235;-78
2021/01/30 01:46:15;;;;;;;2.23;1.07;;;;;;;8.57;63.44;96215.91;8333543;28;20231;-79
2021/01/30 01:50:35;;;;;;;6.17;1.17;;;;;;;8.61;63.33;96221.69;8341329;28;20200;-79
2021/01/30 01:54:39;;;;;;;2.27;1.17;;;;;;;8.63;63.66;96213.84;8338950;28;20620;-79
2021/01/30 01:58:43;;;;;;;3.53;1.20;;;;;;;8.53;64.02;96224.75;8313457;28;20206;-79
2021/01/30 02:02:47;;;;;;;2.60;1.30;;;;;;;8.70;63.88;96222.84;8305686;28;20332;-79
2021/01/30 02:06:52;;;;;;;3.03;1.10;;;;;;;8.73;63.50;96218.31;8306388;28;20232;-79
2021/01/30 02:10:53;;;;;;;2.67;1.37;;;;;;;8.72;63.42;96223.56;8301940;28;20201;-79
2021/01/30 02:14:55;;;;;;;4.73;1.50;;;;;;;8.62;63.41;96241.38;8305129;28;20205;-78
2021/01/30 02:19:11;;;;;;;3.97;1.50;;;;;;;8.61;63.67;96219.13;8309741;28;20197;-79
2021/01/30 02:23:53;;;;;;;4.13;1.50;;;;;;;8.64;63.40;96218.91;8321067;28;20213;-81
2021/01/30 02:28:15;;;;;;;5.17;1.50;;;;;;;8.57;63.77;96230.56;8326536;28;20209;-80
2021/01/30 02:32:24;;;;;;;3.57;1.33;;;;;;;8.33;64.26;96217.44;8324143;28;20204;-80
2021/01/30 02:36:33;;;;;;;4.50;1.20;;;;;;;8.48;63.83;96226.81;8319861;28;20201;-81
2021/01/30 02:40:37;;;;;;;2.70;1.40;;;;;;;8.55;63.79;96228.06;8317555;28;20205;-79
2021/01/30 02:44:41;;;;;;;2.50;1.10;;;;;;;8.51;63.76;96224.03;8318879;28;20232;-80
2021/01/30 02:48:46;;;;;;;2.97;1.10;;;;;;;8.67;63.58;96235.97;8319052;28;20202;-80
2021/01/30 02:52:52;;;;;;;2.50;1.20;;;;;;;8.76;62.94;96241.34;8317877;28;20202;-80
2021/01/30 02:56:56;;;;;;;2.93;1.17;;;;;;;8.70;62.90;96243.47;8318058;28;20205;-81
2021/01/30 03:00:58;;;;;;;2.90;1.13;;;;;;;8.63;62.87;96229.34;8319117;28;20205;-80
2021/01/30 03:05:01;;;;;;;2.57;1.30;;;;;;;8.59;62.88;96236.44;8317606;28;20259;-81
2021/01/30 03:09:10;;;;;;;2.90;1.20;;;;;;;8.59;62.73;96241.59;8344623;28;20307;-81
2021/01/30 03:13:16;;;;;;;3.07;1.00;;;;;;;8.43;63.34;96238.34;8352880;28;20189;-81
2021/01/30 03:17:19;;;;;;;6.10;1.53;;;;;;;8.51;62.90;96231.78;8351880;28;20207;-81
2021/01/30 03:21:22;;;;;;;3.27;1.17;;;;;;;8.63;62.75;96226.75;8352142;28;20211;-81
2021/01/30 03:25:27;;;;;;;2.57;1.00;;;;;;;8.35;62.65;96231.88;8352792;28;20208;-81
2021/01/30 03:29:28;;;;;;;3.30;1.23;;;;;;;8.33;63.33;96236.31;8353065;28;20212;-81
2021/01/30 03:33:30;;;;;;;4.27;1.23;;;;;;;8.39;63.04;96229.94;8353391;28;20203;-80
2021/01/30 03:37:32;;;;;;;2.93;1.37;;;;;;;8.28;63.33;96240.09;8354931;28;20208;-81
2021/01/30 03:41:36;;;;;;;4.00;1.63;;;;;;;8.31;63.41;96248.47;8357817;28;20201;-80
2021/01/30 03:45:40;;;;;;;3.73;1.40;;;;;;;8.27;63.20;96247.00;8358700;28;20201;-80
2021/01/30 03:49:42;;;;;;;3.57;1.30;;;;;;;8.16;63.39;96226.22;8359356;28;20676;-80
2021/01/30 03:53:44;;;;;;;3.23;1.30;;;;;;;8.09;64.22;96238.69;8340229;28;20205;-81
2021/01/30 03:57:50;;;;;;;5.87;1.60;;;;;;;8.09;64.52;96242.97;8327617;28;20680;-80
2021/01/30 04:01:51;;;;;;;3.20;1.20;;;;;;;8.17;64.17;96261.41;8319574;28;20233;-81
2021/01/30 04:05:53;;;;;;;2.33;1.10;;;;;;;8.14;64.34;96259.00;8319385;28;20630;-80
2021/01/30 04:09:55;;;;;;;3.27;1.40;;;;;;;8.26;64.32;96260.81;8320055;28;20208;-80
2021/01/30 04:13:58;;;;;;;2.60;1.30;;;;;;;8.31;64.20;96248.47;8304957;28;20208;-80
2021/01/30 04:18:01;;;;;;;4.60;1.40;;;;;;;8.33;63.82;96253.53;8322126;28;20201;-79
2021/01/30 04:22:03;;;;;;;5.33;1.63;;;;;;;8.25;64.48;96263.50;8323285;28;20237;-80
2021/01/30 04:26:05;;;;;;;2.83;1.20;;;;;;;8.30;64.42;96253.72;8323936;28;20205;-80
2021/01/30 04:30:10;;;;;;;4.67;1.47;;;;;;;8.09;64.87;96256.72;8324227;28;20209;-80
2021/01/30 04:34:11;;;;;;;2.47;1.10;;;;;;;8.17;65.43;96257.06;8324688;28;20216;-79
2021/01/30 04:38:16;;;;;;;5.23;1.43;;;;;;;8.29;64.70;96246.91;8324306;28;20213;-80
2021/01/30 04:42:20;;;;;;;3.67;1.20;;;;;;;8.36;64.44;96248.19;8325885;28;20229;-80
2021/01/30 04:46:31;;;;;;;4.53;1.20;;;;;;;8.24;64.96;96252.34;8327038;28;20212;-80
2021/01/30 04:50:36;;;;;;;3.53;1.20;;;;;;;8.23;64.76;96259.25;8326739;28;20224;-79
2021/01/30 04:54:48;;;;;;;3.80;1.27;;;;;;;8.28;64.92;96252.97;8324353;28;20247;-80
2021/01/30 04:58:57;;;;;;;3.60;1.00;;;;;;;8.32;65.28;96250.13;8325321;28;20205;-80
2021/01/30 05:03:23;;;;;;;3.37;1.40;;;;;;;8.39;64.88;96259.13;8311970;28;20240;-79
2021/01/30 05:07:30;;;;;;;2.93;1.10;;;;;;;8.49;64.61;96259.44;8315580;28;20265;-79
2021/01/30 05:11:32;;;;;;;4.90;1.10;;;;;;;8.49;64.83;96264.59;8337251;28;20189;-79
2021/01/30 05:15:42;;;;;;;4.00;1.40;;;;;;;8.45;64.80;96241.63;8347650;28;20207;-79
2021/01/30 05:19:51;;;;;;;4.33;1.33;;;;;;;8.57;64.74;96254.59;8345220;28;20193;-79
2021/01/30 05:23:53;;;;;;;4.20;1.40;;;;;;;8.39;65.10;96241.06;8348813;28;20563;-79
2021/01/30 05:28:15;;;;;;;3.23;1.00;;;;;;;8.32;65.24;96242.41;8349995;28;20196;-79
2021/01/30 05:32:25;;;;;;;3.60;1.30;;;;;;;8.36;65.01;96230.97;8350896;28;20216;-79
2021/01/30 05:36:33;;;;;;;3.20;1.20;;;;;;;8.48;65.16;96241.47;8350828;28;20193;-80
2021/01/30 05:40:39;;;;;;;3.80;1.13;;;;;;;8.49;64.33;96241.38;8351555;28;20207;-79
2021/01/30 05:44:46;;;;;;;4.90;1.00;;;;;;;8.47;64.85;96242.38;8354980;28;20235;-79
2021/01/30 05:48:48;;;;;;;2.03;0.93;;;;;;;8.41;64.51;96239.28;8355144;28;20208;-80
2021/01/30 05:52:51;;;;;;;1.97;0.80;;;;;;;8.29;65.36;96229.69;8343801;28;20205;-80
2021/01/30 05:56:53;;;;;;;1.37;0.70;;;;;;;8.21;66.91;96232.75;8323656;28;20197;-79
2021/01/30 06:01:21;;;;;;;1.53;0.67;;;;;;;8.26;67.21;96229.03;8323659;28;20225;-80
2021/01/30 06:05:23;;;;;;;4.87;1.83;;;;;;;8.25;67.65;96237.72;8308143;28;20235;-80
2021/01/30 06:09:34;;;;;;;1.70;0.90;;;;;;;8.28;67.94;96232.34;8327991;28;20241;-80
2021/01/30 06:13:51;;;;;;;2.60;1.00;;;;;;;8.46;67.43;96246.72;8328909;28;20205;-80
2021/01/30 06:17:53;;;;;;;3.33;1.00;;;;;;;8.38;67.71;96243.75;8327531;28;20193;-79
2021/01/30 06:22:11;;;;;;;1.43;0.80;;;;;;;8.43;67.53;96254.63;8323832;28;20578;-80
2021/01/30 06:26:18;;;;;;;3.43;1.40;;;;;;;8.33;67.88;96245.78;8323950;28;20201;-80
2021/01/30 06:30:32;;;;;;;2.87;0.90;;;;;;;8.37;68.02;96255.81;8324443;28;20209;-80
2021/01/30 06:34:37;;;;;;;2.23;1.00;;;;;;;8.40;67.76;96258.22;8324092;28;20209;-80
2021/01/30 06:38:41;;;;;;;0.93;0.80;;;;;;;8.45;67.92;96246.81;8316087;28;20217;-80
2021/01/30 06:42:46;;;;;;;3.77;1.30;;;;;;;8.37;68.01;96255.81;8315942;28;20225;-80
2021/01/30 06:47:04;;;;;;;1.63;1.00;;;;;;;8.35;67.81;96239.59;8317042;28;20258;-80
2021/01/30 06:51:29;;;;;;;2.30;0.70;;;;;;;8.39;68.09;96243.66;8317854;28;20190;-79
2021/01/30 06:55:31;;;;;;;1.70;0.90;;;;;;;8.43;68.06;96241.72;8284520;28;20206;-79
2021/01/30 06:59:36;;;;;;;0.90;0.80;;;;;;;8.44;67.80;96251.13;8287740;28;20202;-79
2021/01/30 07:03:58;;;;;;;2.50;0.90;;;;;;;8.53;67.63;96244.56;8291066;28;20225;-80
2021/01/30 07:08:26;;;;;;;2.33;1.20;;;;;;;8.51;67.18;96249.84;8291811;28;20238;-79
2021/01/30 07:12:33;;;;;;;2.30;0.70;;;;;;;8.31;68.37;96255.38;8290616;28;20194;-79
2021/01/30 07:16:44;;;;;;;3.47;0.80;;;;;;;8.32;67.77;96246.69;8289680;28;20209;-79
2021/01/30 07:21:07;;;;;;;1.83;0.73;;;;;;;8.47;67.41;96250.94;8282701;28;20198;-79
2021/01/30 07:25:15;;;;;;;1.33;0.70;;;;;;;8.41;67.48;96257.34;8294189;28;20232;-80
2021/01/30 07:29:36;;;;;;;2.43;0.90;;;;;;;8.52;67.78;96256.63;8320584;28;20208;-80
2021/01/30 07:33:47;;;;;;;1.27;0.70;;;;;;;8.43;67.75;96246.06;8323852;28;20205;-79
2021/01/30 07:37:54;;;;;;;4.60;1.83;;;;;;;8.50;68.31;96247.34;8320031;28;20190;-79
2021/01/30 07:41:58;;;;;;;1.20;1.03;;;;;;;8.60;67.94;96240.66;8320550;28;20205;-79
2021/01/30 07:46:14;;;;;;;3.27;1.00;;;;;;;8.60;67.45;96241.50;8325021;28;20197;-80
2021/01/30 07:50:27;;;;;;;2.47;1.40;;;;;;;8.69;67.33;96234.91;8325803;28;20193;-79
2021/01/30 07:54:30;;;;;;;2.70;1.57;;;;;;;8.63;67.34;96221.59;8322758;28;20243;-80
2021/01/30 07:58:40;;;;;;;2.57;1.00;;;;;;;8.77;66.97;96216.34;8321770;28;20225;-79
2021/01/30 08:03:19;;;;;;;2.17;1.23;;;;;;;8.63;67.26;96219.84;8319150;28;20221;-80
2021/01/30 08:07:34;;;;;;;4.20;2.40;;;;;;;8.59;67.46;96221.78;8245377;28;20252;-79
2021/01/30 08:11:39;;;;;;;2.47;1.60;;;;;;;8.68;67.18;96211.78;8319614;28;20194;-79
2021/01/30 08:15:44;;;;;;;3.97;2.10;;;;;;;8.73;67.45;96192.50;8319493;28;20209;-79
2021/01/30 08:19:50;;;;;;;2.37;1.73;;;;;;;8.69;67.58;96209.13;8319595;28;20212;-79
2021/01/30 08:24:00;;;;;;;2.27;1.30;;;;;;;8.68;67.62;96192.00;8319321;28;20696;-79
2021/01/30 08:28:10;;;;;;;4.20;2.23;;;;;;;8.67;67.84;96203.22;8319955;28;20208;-79
2021/01/30 08:32:40;;;;;;;3.80;1.73;;;;;;;8.75;67.32;96215.63;8321533;28;20216;-80
2021/01/30 08:36:42;;;;;;;6.97;1.97;;;;;;;8.68;67.25;96215.22;8327936;28;20201;-79
2021/01/30 08:40:48;;;;;;;5.10;1.90;;;;;;;8.73;67.21;96215.72;8325245;28;20201;-81
2021/01/30 08:44:55;;;;;;;5.90;2.27;;;;;;;8.67;67.38;96220.47;8314330;28;20243;-81
2021/01/30 08:49:03;;;;;;;8.77;2.23;;;;;;;8.79;67.01;96205.00;8320543;28;20197;-82
2021/01/30 08:53:12;;;;;;;9.57;2.73;;;;;;;8.67;66.86;96216.13;8322652;28;20212;-80
2021/01/30 08:57:43;;;;;;;12.73;3.13;;;;;;;8.65;66.60;96220.56;8288342;28;20213;-80
2021/01/30 09:01:47;;;;;;;10.70;2.80;;;;;;;8.66;67.02;96213.63;8288101;28;20197;-81
2021/01/30 09:05:49;;;;;;;11.60;3.03;;;;;;;8.68;67.29;96229.84;8310676;28;20324;-80
2021/01/30 09:10:14;;;;;;;14.23;4.07;;;;;;;8.70;66.59;96235.75;8318939;28;20233;-80
2021/01/30 09:14:49;;;;;;;12.57;3.50;;;;;;;8.59;67.62;96270.00;8314031;28;20189;-79
2021/01/30 09:18:57;;;;;;;2.00;1.70;;;;;;;7.66;63.89;96273.97;8318913;28;20205;-80
2021/01/30 09:23:13;;;;;;;2.00;1.80;;;;;;;7.36;63.01;96277.41;8318784;28;20221;-81
2021/01/30 09:27:19;;;;;;;1.40;1.00;;;;;;;7.31;62.78;96288.00;8320267;28;20204;-79
2021/01/30 09:31:23;;;;;;;0.70;0.60;;;;;;;6.90;63.21;96305.78;8316746;28;20197;-79
2021/01/30 09:35:30;;;;;;;1.20;1.10;;;;;;;6.87;62.63;96311.09;8318953;28;20223;-78
2021/01/30 09:39:35;;;;;;;1.50;1.40;;;;;;;7.14;62.24;96313.84;8317937;28;20208;-79
2021/01/30 09:43:37;;;;;;;2.00;1.10;;;;;;;7.19;62.24;96325.53;8316482;28;20225;-79
2021/01/30 09:47:47;;;;;;;2.17;1.00;;;;;;;7.20;61.37;96323.81;8319101;28;20208;-79
2021/01/30 09:51:50;;;;;;;1.20;1.10;;;;;;;7.24;60.77;96344.16;8318134;28;20209;-79
2021/01/30 09:55:58;;;;;;;1.83;1.70;;;;;;;7.12;59.52;96341.44;8316155;28;20280;-80
2021/01/30 10:00:01;;;;;;;1.40;1.30;;;;;;;7.07;60.31;96341.69;8321121;28;20201;-79
2021/01/30 10:04:15;;;;;;;8.23;6.80;;;;;;;7.09;60.17;96344.19;8317965;28;20250;-80
2021/01/30 10:08:24;;;;;;;4.40;3.63;;;;;;;7.10;60.70;96344.13;8319187;28;20263;-80
2021/01/30 10:12:26;;;;;;;2.87;2.50;;;;;;;7.05;60.54;96346.09;8323356;28;20205;-80
2021/01/30 10:16:28;;;;;;;13.80;10.07;;;;;;;7.18;60.63;96339.34;8322417;28;20671;-79
2021/01/30 10:20:43;;;;;;;3.90;2.50;;;;;;;7.11;61.17;96340.59;8315374;28;20749;-80
2021/01/30 10:24:46;;;;;;;1.33;1.23;;;;;;;6.89;61.23;96340.97;8310760;28;20264;-78
2021/01/30 10:28:54;;;;;;;1.57;1.47;;;;;;;6.91;60.72;96349.47;8321025;28;20205;-80
2021/01/30 10:32:56;;;;;;;5.60;4.63;;;;;;;6.99;61.34;96341.31;8324223;28;20189;-79
2021/01/30 10:37:01;;;;;;;2.30;1.90;;;;;;;6.96;61.52;96349.19;8308509;28;20208;-79
2021/01/30 10:41:05;;;;;;;0.90;0.90;;;;;;;7.02;61.18;96346.25;8322869;28;20209;-80
2021/01/30 10:45:19;;;;;;;1.57;0.90;;;;;;;7.00;61.29;96351.50;8330120;28;20555;-80
2021/01/30 10:49:24;;;;;;;14.57;1.90;;;;;;;8.23;84.71;96353.84;8321176;28;20208;-79
2021/01/30 10:53:33;;;;;;;9.23;1.70;;;;;;;10.40;63.82;96339.88;8313905;28;20193;-82
2021/01/30 10:57:35;;;;;;;2.73;1.73;;;;;;;10.99;56.33;96344.34;8319155;28;20212;-82
2021/01/30 11:01:37;;;;;;;1.00;0.90;;;;;;;10.54;51.51;96349.25;8318443;28;20664;-80
2021/01/30 11:05:39;;;;;;;0.90;0.90;;;;;;;8.67;55.28;96349.50;8319598;28;20233;-80
2021/01/30 11:09:42;;;;;;;1.33;0.93;;;;;;;8.28;57.14;96356.16;8317891;28;20236;-81
2021/01/30 11:13:43;;;;;;;0.93;0.90;;;;;;;7.89;57.32;96348.13;8323254;28;20201;-81
2021/01/30 11:17:46;;;;;;;1.53;0.80;;;;;;;7.32;59.33;96348.84;8322291;28;20208;-80
2021/01/30 11:21:49;;;;;;;1.37;0.80;;;;;;;7.27;59.75;96347.47;8319966;28;20230;-81
2021/01/30 11:25:51;;;;;;;0.73;0.63;;;;;;;7.55;59.34;96357.00;8320664;28;20227;-79
2021/01/30 11:29:53;;;;;;;2.70;0.70;;;;;;;7.39;59.58;96350.16;8321796;28;20696;-79
2021/01/30 11:33:57;;;;;;;1.77;0.80;;;;;;;7.17;59.48;96349.72;8322040;28;20205;-80
2021/01/30 11:38:01;;;;;;;0.60;0.60;;;;;;;6.83;60.61;96343.88;8321215;28;20201;-80
2021/01/30 11:42:07;;;;;;;1.07;0.80;;;;;;;7.13;60.16;96338.78;8319502;28;20201;-80
2021/01/30 11:46:09;;;;;;;0.90;0.80;;;;;;;6.80;61.18;96341.50;8318502;28;20229;-81
2021/01/30 11:50:12;;;;;;;1.20;0.70;;;;;;;6.67;61.23;96351.63;8317454;28;20653;-81
2021/01/30 11:54:14;;;;;;;1.83;1.73;;;;;;;6.65;61.76;96353.44;8292474;28;20317;-80
2021/01/30 11:58:18;;;;;;;0.80;0.80;;;;;;;6.80;61.84;96360.34;8283593;28;20201;-80
2021/01/30 12:02:29;;;;;;;0.97;0.90;;;;;;;6.76;61.08;96352.84;8285186;28;20232;-81
2021/01/30 12:06:31;;;;;;;1.20;1.07;;;;;;;6.56;61.27;96343.66;8285955;28;20264;-81
2021/01/30 12:10:33;;;;;;;1.10;1.00;;;;;;;6.68;60.89;96347.31;8289890;28;20213;-81
2021/01/30 12:14:39;;;;;;;2.50;1.40;;;;;;;6.70;59.86;96346.31;8290277;28;20236;-81
2021/01/30 12:18:41;;;;;;;1.37;0.90;;;;;;;6.67;60.22;96350.81;8290903;28;20678;-80
2021/01/30 12:22:43;;;;;;;1.43;1.10;;;;;;;6.45;61.05;96341.66;8284911;28;20650;-81
2021/01/30 12:26:45;;;;;;;1.70;1.37;;;;;;;6.76;60.43;96338.25;8283073;28;20201;-78
2021/01/30 12:30:47;;;;;;;1.27;1.20;;;;;;;6.55;60.25;96321.41;8269216;28;20561;-78
2021/01/30 12:34:49;;;;;;;1.70;1.60;;;;;;;6.49;60.44;96316.59;8269497;28;20229;-77
2021/01/30 12:38:51;;;;;;;2.40;1.93;;;;;;;6.54;60.41;96306.91;8268571;28;20201;-78
2021/01/30 12:42:53;;;;;;;2.20;2.00;;;;;;;6.33;60.63;96306.31;8268948;28;20230;-78
2021/01/30 12:46:55;;;;;;;2.33;2.13;;;;;;;6.27;61.61;96297.22;8267869;28;20217;-78
2021/01/30 12:50:57;;;;;;;2.50;2.30;;;;;;;6.05;62.19;96298.34;8293570;28;20641;-78
2021/01/30 12:54:59;;;;;;;23.53;4.17;;;;;;;8.00;87.02;96294.19;8300131;28;20592;-78
2021/01/30 12:59:01;;;;;;;18.90;3.40;;;;;;;10.17;77.65;96287.91;8300292;28;20205;-78
2021/01/30 13:03:04;;;;;;;16.40;3.20;;;;;;;10.96;68.90;96288.38;8300992;28;20235;-78
2021/01/30 13:07:06;;;;;;;4.43;4.03;;;;;;;7.95;56.53;96290.25;8302882;28;20704;-78
2021/01/30 13:11:08;;;;;;;3.70;3.23;;;;;;;7.82;57.02;96285.84;8303475;28;20205;-78
2021/01/30 13:15:14;;;;;;;3.87;3.50;;;;;;;6.63;58.84;96283.25;8301341;28;20209;-78
2021/01/30 13:19:17;;;;;;;4.30;3.90;;;;;;;6.66;58.64;96275.34;8300382;28;20205;-79
2021/01/30 13:23:21;;;;;;;4.67;4.10;;;;;;;6.64;59.82;96277.19;8301765;28;20685;-78
2021/01/30 13:27:23;;;;;;;5.13;4.40;;;;;;;6.62;59.39;96277.25;8304027;28;20226;-78
2021/01/30 13:31:25;;;;;;;4.93;4.43;;;;;;;6.06;60.23;96283.75;8318444;28;20312;-78
2021/01/30 13:35:30;;;;;;;5.13;4.63;;;;;;;6.17;61.14;96272.88;8269875;28;20264;-77
2021/01/30 13:39:32;;;;;;;4.80;4.37;;;;;;;6.28;61.16;96285.16;8284885;28;20205;-78
2021/01/30 13:43:36;;;;;;;5.50;5.00;;;;;;;6.05;60.52;96290.66;8302124;28;20221;-77
2021/01/30 13:47:38;;;;;;;5.97;5.00;;;;;;;6.07;60.81;96278.53;8307294;28;20324;-78
2021/01/30 13:51:41;;;;;;;5.30;4.80;;;;;;;5.82;61.26;96281.53;8306664;28;20201;-78
2021/01/30 13:55:42;;;;;;;5.47;4.97;;;;;;;5.79;60.61;96280.88;8308374;28;20216;-78
2021/01/30 13:59:44;;;;;;;5.60;5.10;;;;;;;5.57;61.14;96284.53;8293290;28;20567;-77
2021/01/30 14:03:46;;;;;;;4.67;4.27;;;;;;;5.78;60.21;96277.44;8276417;28;20248;-78
2021/01/30 14:07:48;;;;;;;5.00;4.50;;;;;;;5.51;60.82;96281.47;8290992;28;20233;-78
2021/01/30 14:11:50;;;;;;;5.10;4.70;;;;;;;5.34;60.33;96278.00;8305567;28;20216;-78
2021/01/30 14:15:52;;;;;;;6.23;4.73;;;;;;;5.55;60.19;96276.06;8333389;28;20212;-77
2021/01/30 14:19:56;;;;;;;5.17;4.67;;;;;;;5.57;60.38;96278.56;8339600;28;20208;-77
2021/01/30 14:23:58;;;;;;;6.30;5.70;;;;;;;5.76;60.18;96274.13;8309124;28;20239;-78
2021/01/30 14:28:01;;;;;;;12.87;11.77;;;;;;;5.50;60.29;96283.19;8305140;28;20201;-78
2021/01/30 14:32:03;;;;;;;18.60;16.70;;;;;;;5.57;60.32;96281.13;8304982;28;20583;-78
2021/01/30 14:36:06;;;;;;;26.90;24.20;;;;;;;5.31;61.16;96273.00;8304440;28;20653;-78
2021/01/30 14:40:10;;;;;;;19.50;17.70;;;;;;;5.63;61.30;96263.66;8304726;28;20209;-78
2021/01/30 14:44:12;;;;;;;21.40;18.20;;;;;;;5.37;60.84;96264.16;8306644;28;20233;-78
2021/01/30 14:48:14;;;;;;;16.60;14.87;;;;;;;5.26;60.80;96255.28;8303713;28;20201;-77
2021/01/30 14:52:16;;;;;;;14.60;13.20;;;;;;;5.35;61.38;96255.72;8304371;28;20206;-78
2021/01/30 14:56:19;;;;;;;10.10;9.10;;;;;;;5.36;61.33;96244.56;8303158;28;20263;-77
2021/01/30 15:00:21;;;;;;;6.57;5.97;;;;;;;5.55;60.78;96235.00;8304766;28;20202;-78
2021/01/30 15:04:25;;;;;;;10.13;9.13;;;;;;;5.64;60.96;96238.84;8297896;28;20232;-78
2021/01/30 15:08:27;;;;;;;7.40;6.70;;;;;;;5.48;61.69;96238.78;8304411;28;20582;-78
2021/01/30 15:12:30;;;;;;;6.70;6.00;;;;;;;5.34;61.34;96238.66;8303841;28;20220;-78
2021/01/30 15:16:37;;;;;;;8.40;7.57;;;;;;;5.43;61.17;96233.91;8303624;28;20228;-77
2021/01/30 15:20:40;;;;;;;7.83;7.13;;;;;;;5.28;62.15;96240.63;8304028;28;20200;-78
2021/01/30 15:24:50;;;;;;;9.57;8.53;;;;;;;5.12;61.90;96241.47;8309021;28;20225;-78
2021/01/30 15:28:53;;;;;;;12.23;10.93;;;;;;;5.12;62.09;96250.00;8293767;28;20232;-77
2021/01/30 15:32:55;;;;;;;7.53;6.93;;;;;;;5.20;61.28;96247.06;8304191;28;20212;-78
2021/01/30 15:36:59;;;;;;;7.77;6.20;;;;;;;5.07;61.34;96239.16;8303865;28;20212;-78
2021/01/30 15:41:00;;;;;;;5.87;5.37;;;;;;;5.09;61.93;96245.03;8303820;28;20657;-78
2021/01/30 15:45:04;;;;;;;13.73;12.33;;;;;;;5.06;61.93;96240.03;8283596;28;20230;-78
2021/01/30 15:49:06;;;;;;;19.47;13.87;;;;;;;5.14;61.32;96240.50;8300832;28;20205;-77
2021/01/30 15:53:08;;;;;;;24.33;17.13;;;;;;;5.20;61.62;96240.19;8297785;28;20232;-77
2021/01/30 15:57:09;;;;;;;14.17;12.73;;;;;;;4.93;61.39;96239.00;8303453;28;20613;-77
2021/01/30 16:01:12;;;;;;;12.80;11.43;;;;;;;5.02;61.91;96234.22;8302513;28;20205;-77
2021/01/30 16:05:14;;;;;;;14.47;13.07;;;;;;;5.06;61.41;96242.63;8302825;28;20621;-77
2021/01/30 16:09:16;;;;;;;10.63;9.63;;;;;;;5.06;61.20;96242.63;8307144;28;20233;-77
2021/01/30 16:13:18;;;;;;;11.50;10.50;;;;;;;5.12;61.69;96242.31;8306688;28;20668;-79
2021/01/30 16:17:20;;;;;;;15.37;13.50;;;;;;;5.21;61.57;96246.97;8306694;28;20204;-78
2021/01/30 16:21:25;;;;;;;13.30;12.00;;;;;;;5.13;60.67;96243.97;8305278;28;20209;-77
2021/01/30 16:25:28;;;;;;;13.80;12.50;;;;;;;5.00;61.63;96238.63;8298269;28;20228;-77
2021/01/30 16:29:30;;;;;;;15.17;13.67;;;;;;;5.08;60.34;96245.94;8299419;28;20208;-77
2021/01/30 16:33:35;;;;;;;12.20;11.03;;;;;;;4.93;61.15;96256.94;8300329;28;20259;-77
2021/01/30 16:37:37;;;;;;;11.60;10.50;;;;;;;5.07;61.07;96247.69;8300349;28;20212;-78
2021/01/30 16:41:39;;;;;;;14.07;12.67;;;;;;;4.97;61.46;96256.75;8300756;28;20197;-77
2021/01/30 16:45:44;;;;;;;9.63;8.83;;;;;;;4.65;61.31;96259.13;8300966;28;20240;-77
2021/01/30 16:49:46;;;;;;;11.10;9.90;;;;;;;4.93;61.69;96268.06;8301284;28;20251;-77
2021/01/30 16:53:50;;;;;;;10.50;9.50;;;;;;;5.04;60.95;96254.69;8303315;28;20201;-79
2021/01/30 16:57:51;;;;;;;8.73;7.93;;;;;;;4.71;61.97;96265.69;8304661;28;20212;-78
2021/01/30 17:01:53;;;;;;;7.03;6.10;;;;;;;4.90;61.43;96270.78;8301072;28;20219;-78
2021/01/30 17:05:58;;;;;;;9.83;8.93;;;;;;;4.97;60.97;96267.00;8299910;28;20287;-77
2021/01/30 17:10:00;;;;;;;9.87;8.97;;;;;;;4.90;61.34;96263.06;8301839;28;20189;-77
2021/01/30 17:14:01;;;;;;;13.17;11.97;;;;;;;4.81;61.56;96271.22;8301864;28;20225;-77
2021/01/30 17:18:04;;;;;;;12.00;10.90;;;;;;;4.63;61.43;96267.81;8312814;28;20205;-79
2021/01/30 17:22:08;;;;;;;10.50;9.50;;;;;;;4.87;61.66;96270.91;8328761;28;20197;-80
2021/01/30 17:26:10;;;;;;;9.97;8.93;;;;;;;4.75;61.89;96268.94;8325308;28;20224;-80
2021/01/30 17:30:13;;;;;;;10.87;9.87;;;;;;;5.02;61.41;96277.03;8327950;28;20205;-79
2021/01/30 17:34:15;;;;;;;8.80;7.90;;;;;;;5.00;60.70;96271.16;8311069;28;20208;-79
2021/01/30 17:38:18;;;;;;;12.93;11.57;;;;;;;4.77;61.62;96270.53;8331076;28;20208;-79
2021/01/30 17:42:20;;;;;;;20.50;17.47;;;;;;;4.85;61.07;96276.09;8320620;28;20684;-80
2021/01/30 17:46:26;;;;;;;11.03;9.70;;;;;;;4.81;61.93;96277.16;8318776;28;20696;-79
2021/01/30 17:50:29;;;;;;;17.23;14.37;;;;;;;5.01;61.17;96278.78;8320858;28;20219;-80
2021/01/30 17:54:32;;;;;;;21.57;19.40;;;;;;;4.47;61.91;96280.50;8318324;28;20202;-80
2021/01/30 17:58:34;;;;;;;18.10;15.83;;;;;;;4.54;62.49;96287.00;8322674;28;20209;-79
2021/01/30 18:02:35;;;;;;;18.00;16.17;;;;;;;4.62;62.17;96279.78;8322191;28;20201;-79
2021/01/30 18:06:37;;;;;;;13.83;12.43;;;;;;;4.69;61.88;96288.84;8322796;28;20564;-79
2021/01/30 18:10:40;;;;;;;14.03;12.60;;;;;;;4.54;62.21;96288.75;8319021;28;20208;-80
2021/01/30 18:14:43;;;;;;;12.67;11.47;;;;;;;4.79;61.50;96293.53;8321279;28;20209;-78
2021/01/30 18:18:47;;;;;;;13.00;11.73;;;;;;;4.45;62.02;96293.38;8324631;28;20284;-81
2021/01/30 18:22:52;;;;;;;12.33;11.13;;;;;;;4.00;63.26;96292.03;8327432;28;20641;-81
2021/01/30 18:26:55;;;;;;;12.73;11.43;;;;;;;4.15;63.13;96294.78;8311447;28;20217;-81
2021/01/30 18:30:57;;;;;;;11.80;10.60;;;;;;;4.30;62.26;96297.50;8326726;28;20231;-80
2021/01/30 18:34:59;;;;;;;16.50;14.80;;;;;;;4.63;61.68;96294.28;8303346;28;20625;-80
2021/01/30 18:39:04;;;;;;;9.80;8.90;;;;;;;4.16;62.04;96297.28;8309078;28;20209;-80
2021/01/30 18:43:07;;;;;;;10.10;9.13;;;;;;;4.57;61.37;96298.84;8297154;28;20236;-79
2021/01/30 18:47:09;;;;;;;10.93;9.87;;;;;;;4.01;62.84;96296.25;8328056;28;20224;-80
2021/01/30 18:51:11;;;;;;;15.80;9.33;;;;;;;4.38;66.95;96296.31;8331613;28;20611;-81
2021/01/30 18:55:13;;;;;;;25.27;19.67;;;;;;;4.44;61.75;96291.75;8328388;28;20565;-80
2021/01/30 18:59:16;;;;;;;14.43;12.93;;;;;;;4.79;61.71;96303.81;8300416;28;20197;-80
2021/01/30 19:03:18;;;;;;;10.40;9.40;;;;;;;4.61;61.20;96295.25;8295705;28;20214;-80
2021/01/30 19:07:19;;;;;;;10.07;9.07;;;;;;;4.17;61.28;96301.53;8301655;28;20245;-79
2021/01/30 19:11:29;;;;;;;7.37;6.67;;;;;;;4.19;61.82;96294.59;8327470;28;20232;-80
2021/01/30 19:15:32;;;;;;;11.60;10.40;;;;;;;3.80;62.06;96302.34;8309629;28;20197;-80
2021/01/30 19:19:34;;;;;;;9.73;8.77;;;;;;;4.10;61.66;96311.22;8329032;28;20212;-80
2021/01/30 19:23:36;;;;;;;15.00;12.77;;;;;;;3.78;62.80;96301.56;8327641;28;20232;-81